sensor_id;sensor_type;location;lat;lon;timestamp;P1;durP1;ratioP1;P2;durP2;ratioP2
20090;SDS011;10205;49.678;6.560;2023-06-22T00:01:17;4.60;;;3.72;;
20090;SDS011;10205;49.678;6.560;2023-06-22T00:03:45;4.13;;;3.72;;
20090;SDS011;10205;49.678;6.560;2023-06-22T00:06:12;4.07;;;3.75;;
20090;SDS011;10205;49.678;6.560;2023-06-22T00:08:39;4.20;;;3.65;;
20090;SDS011;10205;49.678;6.560;2023-06-22T00:11:07;4.13;;;3.42;;
20090;SDS011;10205;49.678;6.560;2023-06-22T00:13:36;4.28;;;3.85;;
20090;SDS011;10205;49.678;6.560;2023-06-22T00:16:04;5.28;;;4.05;;
20090;SDS011;10205;49.678;6.560;2023-06-22T00:18:31;4.05;;;3.70;;
20090;SDS011;10205;49.678;6.560;2023-06-22T00:20:59;4.63;;;4.00;;
20090;SDS011;10205;49.678;6.560;2023-06-22T00:23:27;4.30;;;3.90;;
20090;SDS011;10205;49.678;6.560;2023-06-22T00:25:59;3.97;;;3.65;;
20090;SDS011;10205;49.678;6.560;2023-06-22T00:28:26;3.88;;;3.58;;
20090;SDS011;10205;49.678;6.560;2023-06-22T00:30:55;3.83;;;3.42;;
20090;SDS011;10205;49.678;6.560;2023-06-22T00:33:22;4.18;;;3.78;;
20090;SDS011;10205;49.678;6.560;2023-06-22T00:35:49;4.00;;;3.60;;
20090;SDS011;10205;49.678;6.560;2023-06-22T00:38:17;4.70;;;4.22;;
20090;SDS011;10205;49.678;6.560;2023-06-22T00:40:45;4.28;;;3.88;;
20090;SDS011;10205;49.678;6.560;2023-06-22T00:43:12;4.57;;;3.55;;
20090;SDS011;10205;49.678;6.560;2023-06-22T00:45:39;5.97;;;4.45;;
20090;SDS011;10205;49.678;6.560;2023-06-22T00:48:10;5.07;;;4.28;;
20090;SDS011;10205;49.678;6.560;2023-06-22T00:50:40;4.28;;;3.97;;
20090;SDS011;10205;49.678;6.560;2023-06-22T00:53:07;3.92;;;3.63;;
20090;SDS011;10205;49.678;6.560;2023-06-22T00:55:37;4.43;;;4.00;;
20090;SDS011;10205;49.678;6.560;2023-06-22T00:58:08;4.63;;;4.22;;
20090;SDS011;10205;49.678;6.560;2023-06-22T01:00:38;4.65;;;4.22;;
20090;SDS011;10205;49.678;6.560;2023-06-22T01:03:06;3.78;;;3.40;;
20090;SDS011;10205;49.678;6.560;2023-06-22T01:05:36;3.72;;;3.42;;
20090;SDS011;10205;49.678;6.560;2023-06-22T01:08:06;4.43;;;4.03;;
20090;SDS011;10205;49.678;6.560;2023-06-22T01:10:50;4.93;;;3.97;;
20090;SDS011;10205;49.678;6.560;2023-06-22T01:13:26;4.30;;;3.90;;
20090;SDS011;10205;49.678;6.560;2023-06-22T01:16:02;4.32;;;3.78;;
20090;SDS011;10205;49.678;6.560;2023-06-22T01:18:35;4.63;;;4.22;;
20090;SDS011;10205;49.678;6.560;2023-06-22T01:21:10;4.50;;;4.03;;
20090;SDS011;10205;49.678;6.560;2023-06-22T01:23:50;5.68;;;4.20;;
20090;SDS011;10205;49.678;6.560;2023-06-22T01:26:33;4.28;;;3.88;;
20090;SDS011;10205;49.678;6.560;2023-06-22T01:29:06;4.28;;;3.88;;
20090;SDS011;10205;49.678;6.560;2023-06-22T01:31:38;4.32;;;3.92;;
20090;SDS011;10205;49.678;6.560;2023-06-22T01:34:08;5.75;;;4.18;;
20090;SDS011;10205;49.678;6.560;2023-06-22T01:36:37;4.40;;;4.00;;
20090;SDS011;10205;49.678;6.560;2023-06-22T01:39:06;4.55;;;4.15;;
20090;SDS011;10205;49.678;6.560;2023-06-22T01:41:35;4.15;;;3.75;;
20090;SDS011;10205;49.678;6.560;2023-06-22T01:44:07;4.72;;;3.95;;
20090;SDS011;10205;49.678;6.560;2023-06-22T01:46:35;4.38;;;3.83;;
20090;SDS011;10205;49.678;6.560;2023-06-22T01:49:04;4.25;;;3.83;;
20090;SDS011;10205;49.678;6.560;2023-06-22T01:51:34;3.95;;;3.65;;
20090;SDS011;10205;49.678;6.560;2023-06-22T01:54:01;5.78;;;4.40;;
20090;SDS011;10205;49.678;6.560;2023-06-22T01:56:28;5.18;;;4.47;;
20090;SDS011;10205;49.678;6.560;2023-06-22T01:58:59;4.50;;;4.10;;
20090;SDS011;10205;49.678;6.560;2023-06-22T02:01:38;5.60;;;3.80;;
20090;SDS011;10205;49.678;6.560;2023-06-22T02:04:11;4.15;;;3.75;;
20090;SDS011;10205;49.678;6.560;2023-06-22T02:06:46;4.63;;;4.22;;
20090;SDS011;10205;49.678;6.560;2023-06-22T02:09:19;4.15;;;3.75;;
20090;SDS011;10205;49.678;6.560;2023-06-22T02:11:48;5.15;;;4.22;;
20090;SDS011;10205;49.678;6.560;2023-06-22T02:14:20;4.10;;;3.80;;
20090;SDS011;10205;49.678;6.560;2023-06-22T02:16:50;4.35;;;3.90;;
20090;SDS011;10205;49.678;6.560;2023-06-22T02:19:22;4.65;;;3.85;;
20090;SDS011;10205;49.678;6.560;2023-06-22T02:21:50;4.53;;;4.13;;
20090;SDS011;10205;49.678;6.560;2023-06-22T02:24:17;4.72;;;4.10;;
20090;SDS011;10205;49.678;6.560;2023-06-22T02:26:48;4.00;;;3.70;;
20090;SDS011;10205;49.678;6.560;2023-06-22T02:29:16;4.47;;;4.03;;
20090;SDS011;10205;49.678;6.560;2023-06-22T02:31:43;3.80;;;3.50;;
20090;SDS011;10205;49.678;6.560;2023-06-22T02:34:12;4.47;;;4.07;;
20090;SDS011;10205;49.678;6.560;2023-06-22T02:36:43;3.92;;;3.63;;
20090;SDS011;10205;49.678;6.560;2023-06-22T02:39:15;4.60;;;4.20;;
20090;SDS011;10205;49.678;6.560;2023-06-22T02:41:47;4.60;;;4.20;;
20090;SDS011;10205;49.678;6.560;2023-06-22T02:44:14;4.20;;;3.80;;
20090;SDS011;10205;49.678;6.560;2023-06-22T02:46:42;5.03;;;4.53;;
20090;SDS011;10205;49.678;6.560;2023-06-22T02:49:09;5.47;;;4.28;;
20090;SDS011;10205;49.678;6.560;2023-06-22T02:51:38;4.53;;;4.13;;
20090;SDS011;10205;49.678;6.560;2023-06-22T02:54:07;4.43;;;3.58;;
20090;SDS011;10205;49.678;6.560;2023-06-22T02:56:34;4.60;;;4.20;;
20090;SDS011;10205;49.678;6.560;2023-06-22T02:59:02;4.75;;;3.83;;
20090;SDS011;10205;49.678;6.560;2023-06-22T03:01:30;3.95;;;3.65;;
20090;SDS011;10205;49.678;6.560;2023-06-22T03:04:02;5.45;;;4.20;;
20090;SDS011;10205;49.678;6.560;2023-06-22T03:06:31;4.93;;;4.38;;
20090;SDS011;10205;49.678;6.560;2023-06-22T03:08:59;4.63;;;3.83;;
20090;SDS011;10205;49.678;6.560;2023-06-22T03:11:30;4.60;;;4.07;;
20090;SDS011;10205;49.678;6.560;2023-06-22T03:13:57;4.40;;;4.00;;
20090;SDS011;10205;49.678;6.560;2023-06-22T03:16:25;4.07;;;3.72;;
20090;SDS011;10205;49.678;6.560;2023-06-22T03:18:53;4.70;;;4.30;;
20090;SDS011;10205;49.678;6.560;2023-06-22T03:21:21;5.50;;;4.32;;
20090;SDS011;10205;49.678;6.560;2023-06-22T03:23:51;4.32;;;3.92;;
20090;SDS011;10205;49.678;6.560;2023-06-22T03:26:18;5.15;;;3.67;;
20090;SDS011;10205;49.678;6.560;2023-06-22T03:28:46;4.85;;;4.38;;
20090;SDS011;10205;49.678;6.560;2023-06-22T03:31:13;4.60;;;4.20;;
20090;SDS011;10205;49.678;6.560;2023-06-22T03:33:40;4.53;;;4.13;;
20090;SDS011;10205;49.678;6.560;2023-06-22T03:36:08;5.40;;;4.90;;
20090;SDS011;10205;49.678;6.560;2023-06-22T03:38:35;5.22;;;4.63;;
20090;SDS011;10205;49.678;6.560;2023-06-22T03:41:03;4.38;;;3.97;;
20090;SDS011;10205;49.678;6.560;2023-06-22T03:43:30;4.53;;;4.13;;
20090;SDS011;10205;49.678;6.560;2023-06-22T03:45:58;4.65;;;4.25;;
20090;SDS011;10205;49.678;6.560;2023-06-22T03:48:25;8.13;;;4.70;;
20090;SDS011;10205;49.678;6.560;2023-06-22T03:50:52;4.80;;;4.40;;
20090;SDS011;10205;49.678;6.560;2023-06-22T03:53:20;6.78;;;4.63;;
20090;SDS011;10205;49.678;6.560;2023-06-22T03:55:48;4.55;;;4.00;;
20090;SDS011;10205;49.678;6.560;2023-06-22T03:58:18;4.45;;;4.05;;
20090;SDS011;10205;49.678;6.560;2023-06-22T04:00:49;4.82;;;4.32;;
20090;SDS011;10205;49.678;6.560;2023-06-22T04:03:18;6.10;;;4.97;;
20090;SDS011;10205;49.678;6.560;2023-06-22T04:05:46;6.00;;;4.15;;
20090;SDS011;10205;49.678;6.560;2023-06-22T04:08:14;5.75;;;4.95;;
20090;SDS011;10205;49.678;6.560;2023-06-22T04:10:42;4.90;;;4.40;;
20090;SDS011;10205;49.678;6.560;2023-06-22T04:13:10;6.43;;;4.90;;
20090;SDS011;10205;49.678;6.560;2023-06-22T04:15:38;5.03;;;4.60;;
20090;SDS011;10205;49.678;6.560;2023-06-22T04:18:06;4.85;;;4.45;;
20090;SDS011;10205;49.678;6.560;2023-06-22T04:20:33;5.20;;;4.70;;
20090;SDS011;10205;49.678;6.560;2023-06-22T04:23:01;5.05;;;4.65;;
20090;SDS011;10205;49.678;6.560;2023-06-22T04:25:28;4.72;;;4.20;;
20090;SDS011;10205;49.678;6.560;2023-06-22T04:27:55;5.28;;;4.55;;
20090;SDS011;10205;49.678;6.560;2023-06-22T04:30:22;4.88;;;4.47;;
20090;SDS011;10205;49.678;6.560;2023-06-22T04:32:54;5.18;;;4.68;;
20090;SDS011;10205;49.678;6.560;2023-06-22T04:35:22;5.20;;;4.75;;
20090;SDS011;10205;49.678;6.560;2023-06-22T04:37:50;5.00;;;4.50;;
20090;SDS011;10205;49.678;6.560;2023-06-22T04:40:20;4.93;;;4.50;;
20090;SDS011;10205;49.678;6.560;2023-06-22T04:42:48;5.10;;;4.45;;
20090;SDS011;10205;49.678;6.560;2023-06-22T04:45:18;5.75;;;5.25;;
20090;SDS011;10205;49.678;6.560;2023-06-22T04:47:47;6.43;;;5.35;;
20090;SDS011;10205;49.678;6.560;2023-06-22T04:50:16;7.32;;;5.38;;
20090;SDS011;10205;49.678;6.560;2023-06-22T04:52:46;5.25;;;4.75;;
20090;SDS011;10205;49.678;6.560;2023-06-22T04:55:14;5.40;;;4.88;;
20090;SDS011;10205;49.678;6.560;2023-06-22T04:57:44;4.95;;;4.53;;
20090;SDS011;10205;49.678;6.560;2023-06-22T05:00:14;5.53;;;4.93;;
20090;SDS011;10205;49.678;6.560;2023-06-22T05:02:44;5.65;;;5.10;;
20090;SDS011;10205;49.678;6.560;2023-06-22T05:05:13;5.50;;;5.00;;
20090;SDS011;10205;49.678;6.560;2023-06-22T05:07:42;5.53;;;5.03;;
20090;SDS011;10205;49.678;6.560;2023-06-22T05:10:13;5.35;;;4.88;;
20090;SDS011;10205;49.678;6.560;2023-06-22T05:12:41;5.35;;;4.85;;
20090;SDS011;10205;49.678;6.560;2023-06-22T05:15:09;7.78;;;6.40;;
20090;SDS011;10205;49.678;6.560;2023-06-22T05:17:37;5.15;;;4.72;;
20090;SDS011;10205;49.678;6.560;2023-06-22T05:20:08;5.63;;;5.13;;
20090;SDS011;10205;49.678;6.560;2023-06-22T05:22:38;5.00;;;4.53;;
20090;SDS011;10205;49.678;6.560;2023-06-22T05:25:05;5.82;;;5.28;;
20090;SDS011;10205;49.678;6.560;2023-06-22T05:27:36;5.45;;;4.95;;
20090;SDS011;10205;49.678;6.560;2023-06-22T05:30:06;5.28;;;4.78;;
20090;SDS011;10205;49.678;6.560;2023-06-22T05:32:35;5.53;;;5.05;;
20090;SDS011;10205;49.678;6.560;2023-06-22T05:35:02;6.32;;;5.63;;
20090;SDS011;10205;49.678;6.560;2023-06-22T05:37:31;5.90;;;5.30;;
20090;SDS011;10205;49.678;6.560;2023-06-22T05:39:59;5.63;;;5.10;;
20090;SDS011;10205;49.678;6.560;2023-06-22T05:42:28;5.88;;;4.82;;
20090;SDS011;10205;49.678;6.560;2023-06-22T05:44:56;5.28;;;4.78;;
20090;SDS011;10205;49.678;6.560;2023-06-22T05:47:24;5.50;;;4.95;;
20090;SDS011;10205;49.678;6.560;2023-06-22T05:49:51;6.93;;;6.32;;
20090;SDS011;10205;49.678;6.560;2023-06-22T05:52:18;5.53;;;5.03;;
20090;SDS011;10205;49.678;6.560;2023-06-22T05:54:45;5.80;;;5.30;;
20090;SDS011;10205;49.678;6.560;2023-06-22T05:57:14;5.28;;;4.78;;
20090;SDS011;10205;49.678;6.560;2023-06-22T05:59:41;5.88;;;5.22;;
20090;SDS011;10205;49.678;6.560;2023-06-22T06:02:09;6.00;;;5.50;;
20090;SDS011;10205;49.678;6.560;2023-06-22T06:04:36;6.03;;;5.43;;
20090;SDS011;10205;49.678;6.560;2023-06-22T06:07:03;5.88;;;5.28;;
20090;SDS011;10205;49.678;6.560;2023-06-22T06:09:31;7.22;;;6.18;;
20090;SDS011;10205;49.678;6.560;2023-06-22T06:11:58;6.10;;;5.50;;
20090;SDS011;10205;49.678;6.560;2023-06-22T06:14:29;6.47;;;5.75;;
20090;SDS011;10205;49.678;6.560;2023-06-22T06:16:56;6.55;;;5.90;;
20090;SDS011;10205;49.678;6.560;2023-06-22T06:19:23;6.55;;;5.95;;
20090;SDS011;10205;49.678;6.560;2023-06-22T06:21:51;5.75;;;5.15;;
20090;SDS011;10205;49.678;6.560;2023-06-22T06:24:18;6.28;;;5.68;;
20090;SDS011;10205;49.678;6.560;2023-06-22T06:26:45;6.15;;;5.55;;
20090;SDS011;10205;49.678;6.560;2023-06-22T06:29:13;6.90;;;6.30;;
20090;SDS011;10205;49.678;6.560;2023-06-22T06:31:42;5.90;;;4.88;;
20090;SDS011;10205;49.678;6.560;2023-06-22T06:34:10;6.03;;;5.43;;
20090;SDS011;10205;49.678;6.560;2023-06-22T06:36:37;7.35;;;6.00;;
20090;SDS011;10205;49.678;6.560;2023-06-22T06:39:04;6.22;;;5.65;;
20090;SDS011;10205;49.678;6.560;2023-06-22T06:41:31;8.10;;;6.57;;
20090;SDS011;10205;49.678;6.560;2023-06-22T06:43:59;7.40;;;6.70;;
20090;SDS011;10205;49.678;6.560;2023-06-22T06:46:26;8.75;;;6.70;;
20090;SDS011;10205;49.678;6.560;2023-06-22T06:48:55;8.68;;;7.25;;
20090;SDS011;10205;49.678;6.560;2023-06-22T06:51:22;8.35;;;7.50;;
20090;SDS011;10205;49.678;6.560;2023-06-22T06:53:49;8.50;;;6.70;;
20090;SDS011;10205;49.678;6.560;2023-06-22T06:56:17;7.75;;;6.50;;
20090;SDS011;10205;49.678;6.560;2023-06-22T06:58:44;7.82;;;7.05;;
20090;SDS011;10205;49.678;6.560;2023-06-22T07:01:12;9.88;;;7.50;;
20090;SDS011;10205;49.678;6.560;2023-06-22T07:03:40;8.40;;;6.93;;
20090;SDS011;10205;49.678;6.560;2023-06-22T07:06:09;7.78;;;6.95;;
20090;SDS011;10205;49.678;6.560;2023-06-22T07:08:36;7.60;;;6.68;;
20090;SDS011;10205;49.678;6.560;2023-06-22T07:11:05;7.57;;;6.85;;
20090;SDS011;10205;49.678;6.560;2023-06-22T07:13:32;8.02;;;7.22;;
20090;SDS011;10205;49.678;6.560;2023-06-22T07:15:59;9.05;;;6.75;;
20090;SDS011;10205;49.678;6.560;2023-06-22T07:18:26;7.28;;;6.57;;
20090;SDS011;10205;49.678;6.560;2023-06-22T07:20:54;8.73;;;7.22;;
20090;SDS011;10205;49.678;6.560;2023-06-22T07:23:22;8.80;;;6.63;;
20090;SDS011;10205;49.678;6.560;2023-06-22T07:25:49;7.63;;;6.93;;
20090;SDS011;10205;49.678;6.560;2023-06-22T07:28:17;7.78;;;7.00;;
20090;SDS011;10205;49.678;6.560;2023-06-22T07:30:44;8.23;;;6.85;;
20090;SDS011;10205;49.678;6.560;2023-06-22T07:33:12;9.10;;;6.85;;
20090;SDS011;10205;49.678;6.560;2023-06-22T07:35:40;7.68;;;6.85;;
20090;SDS011;10205;49.678;6.560;2023-06-22T07:38:07;8.20;;;7.22;;
20090;SDS011;10205;49.678;6.560;2023-06-22T07:40:36;7.15;;;6.43;;
20090;SDS011;10205;49.678;6.560;2023-06-22T07:43:03;7.22;;;6.53;;
20090;SDS011;10205;49.678;6.560;2023-06-22T07:45:30;7.78;;;6.97;;
20090;SDS011;10205;49.678;6.560;2023-06-22T07:48:00;7.60;;;6.68;;
20090;SDS011;10205;49.678;6.560;2023-06-22T07:50:27;7.50;;;6.80;;
20090;SDS011;10205;49.678;6.560;2023-06-22T07:52:54;7.72;;;6.75;;
20090;SDS011;10205;49.678;6.560;2023-06-22T07:55:21;6.88;;;6.28;;
20090;SDS011;10205;49.678;6.560;2023-06-22T07:57:50;7.47;;;6.68;;
20090;SDS011;10205;49.678;6.560;2023-06-22T08:00:17;6.80;;;6.20;;
20090;SDS011;10205;49.678;6.560;2023-06-22T08:02:45;7.35;;;6.65;;
20090;SDS011;10205;49.678;6.560;2023-06-22T08:05:13;7.35;;;6.65;;
20090;SDS011;10205;49.678;6.560;2023-06-22T08:07:42;7.15;;;6.53;;
20090;SDS011;10205;49.678;6.560;2023-06-22T08:10:10;8.02;;;6.80;;
20090;SDS011;10205;49.678;6.560;2023-06-22T08:12:38;7.20;;;6.50;;
20090;SDS011;10205;49.678;6.560;2023-06-22T08:15:08;6.90;;;6.30;;
20090;SDS011;10205;49.678;6.560;2023-06-22T08:17:36;7.70;;;6.43;;
20090;SDS011;10205;49.678;6.560;2023-06-22T08:20:03;7.40;;;6.70;;
20090;SDS011;10205;49.678;6.560;2023-06-22T08:22:34;6.70;;;6.13;;
20090;SDS011;10205;49.678;6.560;2023-06-22T08:25:02;6.38;;;5.78;;
20090;SDS011;10205;49.678;6.560;2023-06-22T08:27:31;6.97;;;6.10;;
20090;SDS011;10205;49.678;6.560;2023-06-22T08:29:58;7.65;;;6.43;;
20090;SDS011;10205;49.678;6.560;2023-06-22T08:32:27;6.47;;;5.88;;
20090;SDS011;10205;49.678;6.560;2023-06-22T08:34:55;7.07;;;6.03;;
20090;SDS011;10205;49.678;6.560;2023-06-22T08:37:23;7.50;;;6.70;;
20090;SDS011;10205;49.678;6.560;2023-06-22T08:39:55;6.53;;;5.93;;
20090;SDS011;10205;49.678;6.560;2023-06-22T08:42:22;6.43;;;5.93;;
20090;SDS011;10205;49.678;6.560;2023-06-22T08:44:50;6.53;;;6.03;;
20090;SDS011;10205;49.678;6.560;2023-06-22T08:47:18;6.60;;;5.85;;
20090;SDS011;10205;49.678;6.560;2023-06-22T08:49:47;6.30;;;5.75;;
20090;SDS011;10205;49.678;6.560;2023-06-22T08:52:15;7.60;;;6.70;;
20090;SDS011;10205;49.678;6.560;2023-06-22T08:54:43;6.80;;;6.18;;
20090;SDS011;10205;49.678;6.560;2023-06-22T08:57:11;6.88;;;6.18;;
20090;SDS011;10205;49.678;6.560;2023-06-22T08:59:38;7.13;;;6.53;;
20090;SDS011;10205;49.678;6.560;2023-06-22T09:02:05;6.57;;;6.07;;
20090;SDS011;10205;49.678;6.560;2023-06-22T09:04:33;7.00;;;6.40;;
20090;SDS011;10205;49.678;6.560;2023-06-22T09:07:04;6.90;;;6.20;;
20090;SDS011;10205;49.678;6.560;2023-06-22T09:09:31;6.93;;;6.15;;
20090;SDS011;10205;49.678;6.560;2023-06-22T09:11:59;8.57;;;7.72;;
20090;SDS011;10205;49.678;6.560;2023-06-22T09:14:26;7.00;;;6.40;;
20090;SDS011;10205;49.678;6.560;2023-06-22T09:16:53;6.97;;;6.15;;
20090;SDS011;10205;49.678;6.560;2023-06-22T09:19:21;6.82;;;6.22;;
20090;SDS011;10205;49.678;6.560;2023-06-22T09:21:49;6.47;;;5.93;;
20090;SDS011;10205;49.678;6.560;2023-06-22T09:24:18;7.97;;;7.22;;
20090;SDS011;10205;49.678;6.560;2023-06-22T09:26:48;9.82;;;6.72;;
20090;SDS011;10205;49.678;6.560;2023-06-22T09:29:15;6.88;;;6.10;;
20090;SDS011;10205;49.678;6.560;2023-06-22T09:31:43;7.13;;;6.50;;
20090;SDS011;10205;49.678;6.560;2023-06-22T09:34:10;7.07;;;6.38;;
20090;SDS011;10205;49.678;6.560;2023-06-22T09:36:41;7.05;;;6.35;;
20090;SDS011;10205;49.678;6.560;2023-06-22T09:39:08;7.30;;;5.97;;
20090;SDS011;10205;49.678;6.560;2023-06-22T09:41:37;7.40;;;6.70;;
20090;SDS011;10205;49.678;6.560;2023-06-22T09:44:04;7.13;;;6.22;;
20090;SDS011;10205;49.678;6.560;2023-06-22T09:46:36;6.82;;;6.22;;
20090;SDS011;10205;49.678;6.560;2023-06-22T09:49:03;6.82;;;6.13;;
20090;SDS011;10205;49.678;6.560;2023-06-22T09:51:30;6.60;;;5.95;;
20090;SDS011;10205;49.678;6.560;2023-06-22T09:53:57;7.07;;;6.47;;
20090;SDS011;10205;49.678;6.560;2023-06-22T09:56:25;8.20;;;6.63;;
20090;SDS011;10205;49.678;6.560;2023-06-22T09:58:54;7.03;;;6.15;;
20090;SDS011;10205;49.678;6.560;2023-06-22T10:01:22;7.70;;;6.93;;
20090;SDS011;10205;49.678;6.560;2023-06-22T10:03:50;6.80;;;6.20;;
20090;SDS011;10205;49.678;6.560;2023-06-22T10:06:21;7.50;;;6.80;;
20090;SDS011;10205;49.678;6.560;2023-06-22T10:08:50;6.75;;;6.03;;
20090;SDS011;10205;49.678;6.560;2023-06-22T10:11:17;6.32;;;5.72;;
20090;SDS011;10205;49.678;6.560;2023-06-22T10:13:44;8.45;;;6.38;;
20090;SDS011;10205;49.678;6.560;2023-06-22T10:16:13;7.32;;;6.70;;
20090;SDS011;10205;49.678;6.560;2023-06-22T10:18:40;6.60;;;5.95;;
20090;SDS011;10205;49.678;6.560;2023-06-22T10:21:07;6.47;;;5.78;;
20090;SDS011;10205;49.678;6.560;2023-06-22T10:23:34;7.28;;;6.57;;
20090;SDS011;10205;49.678;6.560;2023-06-22T10:26:02;7.70;;;6.57;;
20090;SDS011;10205;49.678;6.560;2023-06-22T10:28:29;7.40;;;6.70;;
20090;SDS011;10205;49.678;6.560;2023-06-22T10:30:56;6.63;;;6.03;;
20090;SDS011;10205;49.678;6.560;2023-06-22T10:33:25;6.95;;;6.32;;
20090;SDS011;10205;49.678;6.560;2023-06-22T10:35:52;7.60;;;6.90;;
20090;SDS011;10205;49.678;6.560;2023-06-22T10:38:21;7.45;;;6.63;;
20090;SDS011;10205;49.678;6.560;2023-06-22T10:40:48;9.13;;;6.95;;
20090;SDS011;10205;49.678;6.560;2023-06-22T10:43:16;8.52;;;6.88;;
20090;SDS011;10205;49.678;6.560;2023-06-22T10:45:43;6.88;;;6.28;;
20090;SDS011;10205;49.678;6.560;2023-06-22T10:48:11;7.50;;;6.72;;
20090;SDS011;10205;49.678;6.560;2023-06-22T10:50:39;8.25;;;7.55;;
20090;SDS011;10205;49.678;6.560;2023-06-22T10:53:07;7.07;;;6.38;;
20090;SDS011;10205;49.678;6.560;2023-06-22T10:55:34;7.40;;;6.80;;
20090;SDS011;10205;49.678;6.560;2023-06-22T10:58:01;7.15;;;6.50;;
20090;SDS011;10205;49.678;6.560;2023-06-22T11:00:28;7.18;;;6.47;;
20090;SDS011;10205;49.678;6.560;2023-06-22T11:02:56;7.22;;;6.53;;
20090;SDS011;10205;49.678;6.560;2023-06-22T11:05:23;8.10;;;7.30;;
20090;SDS011;10205;49.678;6.560;2023-06-22T11:07:52;10.30;;;6.78;;
20090;SDS011;10205;49.678;6.560;2023-06-22T11:10:19;7.28;;;6.68;;
20090;SDS011;10205;49.678;6.560;2023-06-22T11:12:46;7.85;;;6.68;;
20090;SDS011;10205;49.678;6.560;2023-06-22T11:15:13;7.82;;;7.13;;
20090;SDS011;10205;49.678;6.560;2023-06-22T11:17:41;7.25;;;6.53;;
20090;SDS011;10205;49.678;6.560;2023-06-22T11:20:08;7.50;;;6.80;;
20090;SDS011;10205;49.678;6.560;2023-06-22T11:22:37;8.80;;;7.15;;
20090;SDS011;10205;49.678;6.560;2023-06-22T11:25:06;8.02;;;7.25;;
20090;SDS011;10205;49.678;6.560;2023-06-22T11:27:36;7.75;;;6.72;;
20090;SDS011;10205;49.678;6.560;2023-06-22T11:30:03;6.72;;;6.13;;
20090;SDS011;10205;49.678;6.560;2023-06-22T11:32:32;7.30;;;6.70;;
20090;SDS011;10205;49.678;6.560;2023-06-22T11:35:00;8.27;;;7.30;;
20090;SDS011;10205;49.678;6.560;2023-06-22T11:37:27;7.20;;;6.63;;
20090;SDS011;10205;49.678;6.560;2023-06-22T11:39:54;6.85;;;6.05;;
20090;SDS011;10205;49.678;6.560;2023-06-22T11:42:23;7.70;;;6.90;;
20090;SDS011;10205;49.678;6.560;2023-06-22T11:44:50;7.65;;;6.95;;
20090;SDS011;10205;49.678;6.560;2023-06-22T11:47:18;7.28;;;6.57;;
20090;SDS011;10205;49.678;6.560;2023-06-22T11:49:45;7.28;;;6.68;;
20090;SDS011;10205;49.678;6.560;2023-06-22T11:52:12;6.95;;;6.28;;
20090;SDS011;10205;49.678;6.560;2023-06-22T11:54:40;6.68;;;6.07;;
20090;SDS011;10205;49.678;6.560;2023-06-22T11:57:07;9.18;;;6.65;;
20090;SDS011;10205;49.678;6.560;2023-06-22T11:59:36;7.03;;;6.43;;
20090;SDS011;10205;49.678;6.560;2023-06-22T12:02:03;6.57;;;5.97;;
20090;SDS011;10205;49.678;6.560;2023-06-22T12:04:34;7.18;;;6.47;;
20090;SDS011;10205;49.678;6.560;2023-06-22T12:07:01;7.03;;;6.32;;
20090;SDS011;10205;49.678;6.560;2023-06-22T12:09:29;8.00;;;6.63;;
20090;SDS011;10205;49.678;6.560;2023-06-22T12:11:56;6.97;;;6.32;;
20090;SDS011;10205;49.678;6.560;2023-06-22T12:14:23;6.80;;;5.97;;
20090;SDS011;10205;49.678;6.560;2023-06-22T12:16:52;8.38;;;6.82;;
20090;SDS011;10205;49.678;6.560;2023-06-22T12:19:19;7.88;;;5.93;;
20090;SDS011;10205;49.678;6.560;2023-06-22T12:21:49;7.93;;;6.47;;
20090;SDS011;10205;49.678;6.560;2023-06-22T12:24:17;8.60;;;7.18;;
20090;SDS011;10205;49.678;6.560;2023-06-22T12:26:44;7.90;;;7.20;;
20090;SDS011;10205;49.678;6.560;2023-06-22T12:29:11;7.10;;;6.50;;
20090;SDS011;10205;49.678;6.560;2023-06-22T12:31:38;7.38;;;6.68;;
20090;SDS011;10205;49.678;6.560;2023-06-22T12:34:08;7.53;;;6.82;;
20090;SDS011;10205;49.678;6.560;2023-06-22T12:36:35;7.80;;;6.30;;
20090;SDS011;10205;49.678;6.560;2023-06-22T12:39:02;6.88;;;6.28;;
20090;SDS011;10205;49.678;6.560;2023-06-22T12:41:29;6.80;;;6.20;;
20090;SDS011;10205;49.678;6.560;2023-06-22T12:43:57;7.43;;;6.72;;
20090;SDS011;10205;49.678;6.560;2023-06-22T12:46:24;7.38;;;6.75;;
20090;SDS011;10205;49.678;6.560;2023-06-22T12:48:53;8.00;;;7.03;;
20090;SDS011;10205;49.678;6.560;2023-06-22T12:51:21;7.55;;;6.85;;
20090;SDS011;10205;49.678;6.560;2023-06-22T12:53:49;6.90;;;6.30;;
20090;SDS011;10205;49.678;6.560;2023-06-22T12:56:17;7.20;;;6.50;;
20090;SDS011;10205;49.678;6.560;2023-06-22T12:58:44;7.43;;;6.72;;
20090;SDS011;10205;49.678;6.560;2023-06-22T13:01:11;7.03;;;6.43;;
20090;SDS011;10205;49.678;6.560;2023-06-22T13:03:39;6.43;;;5.82;;
20090;SDS011;10205;49.678;6.560;2023-06-22T13:06:08;7.10;;;6.43;;
20090;SDS011;10205;49.678;6.560;2023-06-22T13:08:36;7.30;;;6.63;;
20090;SDS011;10205;49.678;6.560;2023-06-22T13:11:06;6.93;;;6.00;;
20090;SDS011;10205;49.678;6.560;2023-06-22T13:13:33;6.75;;;6.05;;
20090;SDS011;10205;49.678;6.560;2023-06-22T13:16:00;12.15;;;6.07;;
20090;SDS011;10205;49.678;6.560;2023-06-22T13:18:28;9.05;;;6.75;;
20090;SDS011;10205;49.678;6.560;2023-06-22T13:20:55;7.47;;;6.60;;
20090;SDS011;10205;49.678;6.560;2023-06-22T13:23:23;7.72;;;6.28;;
20090;SDS011;10205;49.678;6.560;2023-06-22T13:25:51;7.65;;;5.63;;
20090;SDS011;10205;49.678;6.560;2023-06-22T13:28:19;6.35;;;5.55;;
20090;SDS011;10205;49.678;6.560;2023-06-22T13:30:46;7.30;;;6.28;;
20090;SDS011;10205;49.678;6.560;2023-06-22T13:33:14;7.63;;;5.32;;
20090;SDS011;10205;49.678;6.560;2023-06-22T13:35:41;11.55;;;5.72;;
20090;SDS011;10205;49.678;6.560;2023-06-22T13:38:09;6.40;;;4.78;;
20090;SDS011;10205;49.678;6.560;2023-06-22T13:40:36;6.53;;;5.20;;
20090;SDS011;10205;49.678;6.560;2023-06-22T13:43:05;7.38;;;5.45;;
20090;SDS011;10205;49.678;6.560;2023-06-22T13:45:33;6.40;;;5.28;;
20090;SDS011;10205;49.678;6.560;2023-06-22T13:48:00;7.80;;;4.95;;
20090;SDS011;10205;49.678;6.560;2023-06-22T13:50:28;7.63;;;5.13;;
20090;SDS011;10205;49.678;6.560;2023-06-22T13:52:55;5.40;;;4.90;;
20090;SDS011;10205;49.678;6.560;2023-06-22T13:55:22;8.65;;;5.38;;
20090;SDS011;10205;49.678;6.560;2023-06-22T13:57:51;6.68;;;4.57;;
20090;SDS011;10205;49.678;6.560;2023-06-22T14:00:20;8.32;;;5.15;;
20090;SDS011;10205;49.678;6.560;2023-06-22T14:02:48;6.43;;;5.13;;
20090;SDS011;10205;49.678;6.560;2023-06-22T14:05:15;6.47;;;4.47;;
20090;SDS011;10205;49.678;6.560;2023-06-22T14:07:43;5.70;;;4.10;;
20090;SDS011;10205;49.678;6.560;2023-06-22T14:10:10;7.50;;;4.68;;
20090;SDS011;10205;49.678;6.560;2023-06-22T14:12:37;8.35;;;4.13;;
20090;SDS011;10205;49.678;6.560;2023-06-22T14:15:05;7.65;;;4.32;;
20090;SDS011;10205;49.678;6.560;2023-06-22T14:17:34;4.55;;;4.13;;
20090;SDS011;10205;49.678;6.560;2023-06-22T14:20:02;5.93;;;4.13;;
20090;SDS011;10205;49.678;6.560;2023-06-22T14:22:31;5.30;;;4.10;;
20090;SDS011;10205;49.678;6.560;2023-06-22T14:24:58;5.95;;;4.07;;
20090;SDS011;10205;49.678;6.560;2023-06-22T14:27:26;5.50;;;3.50;;
20090;SDS011;10205;49.678;6.560;2023-06-22T14:29:54;5.25;;;3.53;;
20090;SDS011;10205;49.678;6.560;2023-06-22T14:32:21;4.15;;;3.40;;
20090;SDS011;10205;49.678;6.560;2023-06-22T14:34:50;4.50;;;3.40;;
20090;SDS011;10205;49.678;6.560;2023-06-22T14:37:18;5.22;;;3.83;;
20090;SDS011;10205;49.678;6.560;2023-06-22T14:39:45;5.20;;;3.90;;
20090;SDS011;10205;49.678;6.560;2023-06-22T14:42:12;5.75;;;3.72;;
20090;SDS011;10205;49.678;6.560;2023-06-22T14:44:39;4.47;;;2.80;;
20090;SDS011;10205;49.678;6.560;2023-06-22T14:47:07;5.45;;;3.50;;
20090;SDS011;10205;49.678;6.560;2023-06-22T14:49:35;4.38;;;2.67;;
20090;SDS011;10205;49.678;6.560;2023-06-22T14:52:04;2.92;;;2.47;;
20090;SDS011;10205;49.678;6.560;2023-06-22T14:54:32;2.25;;;2.05;;